sensor_id;sensor_type;location;lat;lon;timestamp;pressure;altitude;pressure_sealevel;temperature;humidity
78073;BME280;67281;48.770;11.440;2023-04-24T00:01:59;96269.91;;;21.18;46.29
78073;BME280;67281;48.770;11.440;2023-04-24T00:04:27;96277.06;;;21.18;45.98
78073;BME280;67281;48.770;11.440;2023-04-24T00:06:54;96270.72;;;21.19;45.60
78073;BME280;67281;48.770;11.440;2023-04-24T00:09:24;96265.78;;;21.16;46.29
78073;BME280;67281;48.770;11.440;2023-04-24T00:11:51;96265.16;;;21.14;45.93
78073;BME280;67281;48.770;11.440;2023-04-24T00:14:18;96264.34;;;21.13;45.70
78073;BME280;67281;48.770;11.440;2023-04-24T00:16:44;96267.81;;;21.14;45.70
78073;BME280;67281;48.770;11.440;2023-04-24T00:19:11;96262.50;;;21.14;45.74
78073;BME280;67281;48.770;11.440;2023-04-24T00:21:40;96263.50;;;21.13;45.91
78073;BME280;67281;48.770;11.440;2023-04-24T00:24:07;96252.22;;;21.11;45.72
78073;BME280;67281;48.770;11.440;2023-04-24T00:26:35;96250.38;;;21.11;46.30
78073;BME280;67281;48.770;11.440;2023-04-24T00:29:02;96254.91;;;21.11;46.30
78073;BME280;67281;48.770;11.440;2023-04-24T00:31:29;96250.59;;;21.10;45.66
78073;BME280;67281;48.770;11.440;2023-04-24T00:33:56;96251.59;;;21.09;46.21
78073;BME280;67281;48.770;11.440;2023-04-24T00:36:22;96255.09;;;21.09;46.43
78073;BME280;67281;48.770;11.440;2023-04-24T00:38:49;96257.94;;;21.08;46.06
78073;BME280;67281;48.770;11.440;2023-04-24T00:41:16;96266.97;;;21.07;45.98
78073;BME280;67281;48.770;11.440;2023-04-24T00:43:43;96264.69;;;21.04;46.05
78073;BME280;67281;48.770;11.440;2023-04-24T00:46:10;96258.75;;;21.02;45.93
78073;BME280;67281;48.770;11.440;2023-04-24T00:48:39;96264.88;;;21.02;46.03
78073;BME280;67281;48.770;11.440;2023-04-24T00:51:06;96268.78;;;20.99;46.23
78073;BME280;67281;48.770;11.440;2023-04-24T00:53:32;96273.06;;;21.00;45.96
78073;BME280;67281;48.770;11.440;2023-04-24T00:55:59;96259.97;;;20.99;45.63
78073;BME280;67281;48.770;11.440;2023-04-24T00:58:28;96269.16;;;20.96;45.87
78073;BME280;67281;48.770;11.440;2023-04-24T01:00:56;96263.00;;;20.96;46.10
78073;BME280;67281;48.770;11.440;2023-04-24T01:03:29;96262.19;;;20.95;45.69
78073;BME280;67281;48.770;11.440;2023-04-24T01:06:00;96258.91;;;20.93;46.63
78073;BME280;67281;48.770;11.440;2023-04-24T01:08:28;96258.91;;;20.93;46.27
78073;BME280;67281;48.770;11.440;2023-04-24T01:10:57;96259.91;;;20.92;46.43
78073;BME280;67281;48.770;11.440;2023-04-24T01:13:24;96267.91;;;20.92;46.03
78073;BME280;67281;48.770;11.440;2023-04-24T01:15:51;96269.13;;;20.90;45.92
78073;BME280;67281;48.770;11.440;2023-04-24T01:18:17;96269.94;;;20.90;45.71
78073;BME280;67281;48.770;11.440;2023-04-24T01:20:45;96258.66;;;20.88;46.14
78073;BME280;67281;48.770;11.440;2023-04-24T01:23:13;96258.03;;;20.86;45.61
78073;BME280;67281;48.770;11.440;2023-04-24T01:25:40;96254.75;;;20.84;45.80
78073;BME280;67281;48.770;11.440;2023-04-24T01:28:07;96260.50;;;20.88;45.57
78073;BME280;67281;48.770;11.440;2023-04-24T01:30:33;96261.72;;;20.85;46.23
78073;BME280;67281;48.770;11.440;2023-04-24T01:33:01;96266.59;;;20.82;45.63
78073;BME280;67281;48.770;11.440;2023-04-24T01:35:27;96258.03;;;20.80;46.15
78073;BME280;67281;48.770;11.440;2023-04-24T01:37:54;96258.81;;;20.80;46.14
78073;BME280;67281;48.770;11.440;2023-04-24T01:40:21;96259.03;;;20.79;46.29
78073;BME280;67281;48.770;11.440;2023-04-24T01:42:48;96256.38;;;20.79;46.49
78073;BME280;67281;48.770;11.440;2023-04-24T01:45:15;96257.19;;;20.79;46.07
78073;BME280;67281;48.770;11.440;2023-04-24T01:47:41;96254.09;;;20.76;46.42
78073;BME280;67281;48.770;11.440;2023-04-24T01:50:09;96252.28;;;20.76;46.56
78073;BME280;67281;48.770;11.440;2023-04-24T01:52:36;96245.94;;;20.77;45.73
78073;BME280;67281;48.770;11.440;2023-04-24T01:55:03;96245.28;;;20.75;45.75
78073;BME280;67281;48.770;11.440;2023-04-24T01:57:31;96239.34;;;20.73;46.11
78073;BME280;67281;48.770;11.440;2023-04-24T01:59:58;96235.84;;;20.73;45.93
78073;BME280;67281;48.770;11.440;2023-04-24T02:02:25;96239.53;;;20.72;46.38
78073;BME280;67281;48.770;11.440;2023-04-24T02:04:54;96244.88;;;20.72;46.09
78073;BME280;67281;48.770;11.440;2023-04-24T02:07:21;96234.41;;;20.70;46.39
78073;BME280;67281;48.770;11.440;2023-04-24T02:09:48;96226.81;;;20.67;46.04
78073;BME280;67281;48.770;11.440;2023-04-24T02:12:15;96226.19;;;20.65;46.52
78073;BME280;67281;48.770;11.440;2023-04-24T02:14:43;96218.81;;;20.67;45.77
78073;BME280;67281;48.770;11.440;2023-04-24T02:17:10;96222.50;;;20.66;45.82
78073;BME280;67281;48.770;11.440;2023-04-24T02:19:38;96224.53;;;20.64;46.40
78073;BME280;67281;48.770;11.440;2023-04-24T02:22:06;96226.81;;;20.67;45.92
78073;BME280;67281;48.770;11.440;2023-04-24T02:24:32;96222.91;;;20.63;45.89
78073;BME280;67281;48.770;11.440;2023-04-24T02:26:59;96223.91;;;20.62;46.35
78073;BME280;67281;48.770;11.440;2023-04-24T02:29:26;96217.78;;;20.61;46.34
78073;BME280;67281;48.770;11.440;2023-04-24T02:31:53;96222.28;;;20.61;45.77
78073;BME280;67281;48.770;11.440;2023-04-24T02:34:20;96231.06;;;20.61;46.43
78073;BME280;67281;48.770;11.440;2023-04-24T02:36:46;96224.75;;;20.62;45.78
78073;BME280;67281;48.770;11.440;2023-04-24T02:39:13;96216.50;;;20.57;46.11
78073;BME280;67281;48.770;11.440;2023-04-24T02:41:40;96214.47;;;20.59;46.47
78073;BME280;67281;48.770;11.440;2023-04-24T02:44:07;96214.47;;;20.59;46.05
78073;BME280;67281;48.770;11.440;2023-04-24T02:46:34;96214.88;;;20.56;45.60
78073;BME280;67281;48.770;11.440;2023-04-24T02:49:01;96226.72;;;20.54;46.18
78073;BME280;67281;48.770;11.440;2023-04-24T02:51:28;96225.09;;;20.53;46.09
78073;BME280;67281;48.770;11.440;2023-04-24T02:53:55;96222.22;;;20.54;45.71
78073;BME280;67281;48.770;11.440;2023-04-24T02:56:22;96215.25;;;20.53;46.24
78073;BME280;67281;48.770;11.440;2023-04-24T02:58:48;96225.91;;;20.53;46.10
78073;BME280;67281;48.770;11.440;2023-04-24T03:01:15;96236.75;;;20.52;46.12
78073;BME280;67281;48.770;11.440;2023-04-24T03:03:42;96242.47;;;20.49;46.39
78073;BME280;67281;48.770;11.440;2023-04-24T03:06:09;96237.31;;;20.47;46.18
78073;BME280;67281;48.770;11.440;2023-04-24T03:08:36;96242.84;;;20.46;45.70
78073;BME280;67281;48.770;11.440;2023-04-24T03:11:03;96244.50;;;20.47;46.43
78073;BME280;67281;48.770;11.440;2023-04-24T03:13:29;96240.38;;;20.44;46.39
78073;BME280;67281;48.770;11.440;2023-04-24T03:15:56;96240.94;;;20.40;46.17
78073;BME280;67281;48.770;11.440;2023-04-24T03:18:23;96243.22;;;20.43;46.17
78073;BME280;67281;48.770;11.440;2023-04-24T03:20:50;96235.25;;;20.43;45.69
78073;BME280;67281;48.770;11.440;2023-04-24T03:23:17;96241.38;;;20.43;46.35
78073;BME280;67281;48.770;11.440;2023-04-24T03:25:44;96245.06;;;20.42;45.87
78073;BME280;67281;48.770;11.440;2023-04-24T03:28:10;96241.78;;;20.40;45.67
78073;BME280;67281;48.770;11.440;2023-04-24T03:30:37;96241.78;;;20.40;46.08
78073;BME280;67281;48.770;11.440;2023-04-24T03:33:04;96244.63;;;20.39;45.70
78073;BME280;67281;48.770;11.440;2023-04-24T03:35:31;96242.13;;;20.37;46.48
78073;BME280;67281;48.770;11.440;2023-04-24T03:37:58;96244.78;;;20.37;45.79
78073;BME280;67281;48.770;11.440;2023-04-24T03:40:24;96250.31;;;20.35;46.00
78073;BME280;67281;48.770;11.440;2023-04-24T03:42:51;96243.72;;;20.31;46.38
78073;BME280;67281;48.770;11.440;2023-04-24T03:45:18;96254.16;;;20.33;45.80
78073;BME280;67281;48.770;11.440;2023-04-24T03:47:45;96249.88;;;20.32;46.04
78073;BME280;67281;48.770;11.440;2023-04-24T03:50:11;96245.56;;;20.31;45.88
78073;BME280;67281;48.770;11.440;2023-04-24T03:52:38;96243.72;;;20.31;46.36
78073;BME280;67281;48.770;11.440;2023-04-24T03:55:05;96246.38;;;20.31;45.78
78073;BME280;67281;48.770;11.440;2023-04-24T03:57:33;96238.78;;;20.28;46.17
78073;BME280;67281;48.770;11.440;2023-04-24T03:59:59;96247.59;;;20.29;46.04
78073;BME280;67281;48.770;11.440;2023-04-24T04:02:26;96240.63;;;20.28;46.09
78073;BME280;67281;48.770;11.440;2023-04-24T04:04:53;96229.97;;;20.28;46.05
78073;BME280;67281;48.770;11.440;2023-04-24T04:07:20;96239.81;;;20.27;46.02
78073;BME280;67281;48.770;11.440;2023-04-24T04:09:47;96240.81;;;20.26;46.22
78073;BME280;67281;48.770;11.440;2023-04-24T04:12:13;96242.84;;;20.24;46.03
78073;BME280;67281;48.770;11.440;2023-04-24T04:14:40;96245.50;;;20.24;46.33
78073;BME280;67281;48.770;11.440;2023-04-24T04:17:07;96242.66;;;20.26;46.25
78073;BME280;67281;48.770;11.440;2023-04-24T04:19:34;96241.38;;;20.22;46.00
78073;BME280;67281;48.770;11.440;2023-04-24T04:22:01;96237.91;;;20.21;46.05
78073;BME280;67281;48.770;11.440;2023-04-24T04:24:28;96237.91;;;20.21;45.74
78073;BME280;67281;48.770;11.440;2023-04-24T04:26:55;96239.56;;;20.22;46.00
78073;BME280;67281;48.770;11.440;2023-04-24T04:29:24;96240.56;;;20.21;46.15
78073;BME280;67281;48.770;11.440;2023-04-24T04:31:52;96240.75;;;20.20;46.08
78073;BME280;67281;48.770;11.440;2023-04-24T04:34:19;96239.94;;;20.19;45.76
78073;BME280;67281;48.770;11.440;2023-04-24T04:36:46;96240.94;;;20.18;46.08
78073;BME280;67281;48.770;11.440;2023-04-24T04:39:13;96237.66;;;20.16;46.21
78073;BME280;67281;48.770;11.440;2023-04-24T04:41:41;96240.69;;;20.13;45.94
78073;BME280;67281;48.770;11.440;2023-04-24T04:44:08;96250.13;;;20.16;46.19
78073;BME280;67281;48.770;11.440;2023-04-24T04:46:36;96250.72;;;20.11;46.27
78073;BME280;67281;48.770;11.440;2023-04-24T04:49:03;96249.06;;;20.10;45.89
78073;BME280;67281;48.770;11.440;2023-04-24T04:51:30;96248.06;;;20.11;46.32
78073;BME280;67281;48.770;11.440;2023-04-24T04:53:57;96246.22;;;20.12;46.07
78073;BME280;67281;48.770;11.440;2023-04-24T04:56:24;96248.06;;;20.11;46.23
78073;BME280;67281;48.770;11.440;2023-04-24T04:58:52;96248.06;;;20.11;46.08
78073;BME280;67281;48.770;11.440;2023-04-24T05:01:18;96245.38;;;20.11;45.89
78073;BME280;67281;48.770;11.440;2023-04-24T05:03:48;96252.34;;;20.12;45.58
78073;BME280;67281;48.770;11.440;2023-04-24T05:06:15;96257.88;;;20.11;45.38
78073;BME280;67281;48.770;11.440;2023-04-24T05:08:42;96262.75;;;20.07;45.65
78073;BME280;67281;48.770;11.440;2023-04-24T05:11:09;96253.75;;;20.08;45.48
78073;BME280;67281;48.770;11.440;2023-04-24T05:13:36;96257.00;;;20.04;45.97
78073;BME280;67281;48.770;11.440;2023-04-24T05:16:06;96255.56;;;20.01;45.59
78073;BME280;67281;48.770;11.440;2023-04-24T05:18:33;96261.91;;;20.07;45.88
78073;BME280;67281;48.770;11.440;2023-04-24T05:21:00;96262.94;;;20.06;45.64
78073;BME280;67281;48.770;11.440;2023-04-24T05:23:28;96264.81;;;20.05;45.53
78073;BME280;67281;48.770;11.440;2023-04-24T05:25:54;96271.75;;;20.06;45.38
78073;BME280;67281;48.770;11.440;2023-04-24T05:28:21;96266.63;;;20.05;45.81
78073;BME280;67281;48.770;11.440;2023-04-24T05:30:48;96276.44;;;20.04;45.74
78073;BME280;67281;48.770;11.440;2023-04-24T05:33:15;96272.97;;;20.04;45.48
78073;BME280;67281;48.770;11.440;2023-04-24T05:35:42;96272.97;;;20.04;45.43
78073;BME280;67281;48.770;11.440;2023-04-24T05:38:13;96278.28;;;20.04;45.71
78073;BME280;67281;48.770;11.440;2023-04-24T05:40:41;96274.63;;;20.05;45.78
78073;BME280;67281;48.770;11.440;2023-04-24T05:43:08;96268.84;;;20.01;45.68
78073;BME280;67281;48.770;11.440;2023-04-24T05:45:34;96274.81;;;20.03;45.30
78073;BME280;67281;48.770;11.440;2023-04-24T05:48:03;96272.16;;;20.03;45.73
78073;BME280;67281;48.770;11.440;2023-04-24T05:50:30;96273.78;;;20.04;46.01
78073;BME280;67281;48.770;11.440;2023-04-24T05:52:57;96281.56;;;20.06;45.68
78073;BME280;67281;48.770;11.440;2023-04-24T05:55:25;96276.03;;;20.07;45.61
78073;BME280;67281;48.770;11.440;2023-04-24T05:57:52;96279.72;;;20.06;45.61
78073;BME280;67281;48.770;11.440;2023-04-24T06:00:19;96284.03;;;20.07;45.35
78073;BME280;67281;48.770;11.440;2023-04-24T06:02:46;96286.13;;;20.12;45.24
78073;BME280;67281;48.770;11.440;2023-04-24T06:05:13;96293.28;;;20.11;45.14
78073;BME280;67281;48.770;11.440;2023-04-24T06:07:41;96296.56;;;20.13;45.70
78073;BME280;67281;48.770;11.440;2023-04-24T06:10:08;96292.25;;;20.12;45.50
78073;BME280;67281;48.770;11.440;2023-04-24T06:12:36;96303.06;;;20.04;45.57
78073;BME280;67281;48.770;11.440;2023-04-24T06:15:03;96298.97;;;20.08;45.18
78073;BME280;67281;48.770;11.440;2023-04-24T06:17:30;96303.88;;;20.05;45.57
78073;BME280;67281;48.770;11.440;2023-04-24T06:19:57;96303.81;;;19.98;45.71
78073;BME280;67281;48.770;11.440;2023-04-24T06:22:24;96293.81;;;20.00;45.83
78073;BME280;67281;48.770;11.440;2023-04-24T06:24:51;96307.94;;;20.00;45.94
78073;BME280;67281;48.770;11.440;2023-04-24T06:27:19;96300.78;;;20.01;45.51
78073;BME280;67281;48.770;11.440;2023-04-24T06:29:45;96289.31;;;20.00;45.22
78073;BME280;67281;48.770;11.440;2023-04-24T06:32:15;96294.38;;;19.95;45.48
78073;BME280;67281;48.770;11.440;2023-04-24T06:34:42;96299.94;;;20.00;45.61
78073;BME280;67281;48.770;11.440;2023-04-24T06:37:09;96304.25;;;20.01;45.92
78073;BME280;67281;48.770;11.440;2023-04-24T06:39:36;96300.78;;;20.01;45.82
78073;BME280;67281;48.770;11.440;2023-04-24T06:42:03;96291.59;;;20.04;45.14
78073;BME280;67281;48.770;11.440;2023-04-24T06:44:29;96287.84;;;19.98;45.39
78073;BME280;67281;48.770;11.440;2023-04-24T06:46:56;96279.50;;;20.01;45.77
78073;BME280;67281;48.770;11.440;2023-04-24T06:49:23;96290.34;;;20.06;45.07
78073;BME280;67281;48.770;11.440;2023-04-24T06:51:50;96287.09;;;20.04;45.39
78073;BME280;67281;48.770;11.440;2023-04-24T06:54:16;96288.31;;;20.08;45.21
78073;BME280;67281;48.770;11.440;2023-04-24T06:56:51;96287.94;;;20.11;44.91
78073;BME280;67281;48.770;11.440;2023-04-24T06:59:18;96288.59;;;20.13;45.40
78073;BME280;67281;48.770;11.440;2023-04-24T07:01:45;96299.84;;;20.15;45.03
78073;BME280;67281;48.770;11.440;2023-04-24T07:04:12;96296.56;;;20.13;44.85
78073;BME280;67281;48.770;11.440;2023-04-24T07:06:47;96303.06;;;20.04;45.31
78073;BME280;67281;48.770;11.440;2023-04-24T07:09:15;96307.34;;;20.05;45.31
78073;BME280;67281;48.770;11.440;2023-04-24T07:11:45;96309.38;;;20.03;45.62
78073;BME280;67281;48.770;11.440;2023-04-24T07:14:12;96316.13;;;20.06;44.91
78073;BME280;67281;48.770;11.440;2023-04-24T07:16:42;96320.41;;;20.00;45.59
78073;BME280;67281;48.770;11.440;2023-04-24T07:19:09;96320.97;;;19.95;44.90
78073;BME280;67281;48.770;11.440;2023-04-24T07:21:39;96316.41;;;19.89;45.23
78073;BME280;67281;48.770;11.440;2023-04-24T07:24:06;96319.50;;;19.93;44.93
78073;BME280;67281;48.770;11.440;2023-04-24T07:26:37;96327.66;;;19.91;45.11
78073;BME280;67281;48.770;11.440;2023-04-24T07:29:06;96321.91;;;19.88;44.96
78073;BME280;67281;48.770;11.440;2023-04-24T07:31:34;96331.78;;;19.94;45.28
78073;BME280;67281;48.770;11.440;2023-04-24T07:34:01;96327.66;;;19.91;44.97
78073;BME280;67281;48.770;11.440;2023-04-24T07:36:28;96333.56;;;19.87;45.41
78073;BME280;67281;48.770;11.440;2023-04-24T07:38:55;96323.66;;;19.81;45.97
78073;BME280;67281;48.770;11.440;2023-04-24T07:41:23;96342.56;;;19.71;44.96
78073;BME280;67281;48.770;11.440;2023-04-24T07:43:51;96361.19;;;19.56;45.79
78073;BME280;67281;48.770;11.440;2023-04-24T07:46:19;96361.00;;;19.73;45.39
78073;BME280;67281;48.770;11.440;2023-04-24T07:48:46;96360.97;;;19.87;44.99
78073;BME280;67281;48.770;11.440;2023-04-24T07:51:31;96366.91;;;19.89;45.10
78073;BME280;67281;48.770;11.440;2023-04-24T07:53:59;96375.53;;;19.91;45.08
78073;BME280;67281;48.770;11.440;2023-04-24T07:56:26;96382.03;;;19.89;44.76
78073;BME280;67281;48.770;11.440;2023-04-24T07:58:53;96375.53;;;19.91;45.34
78073;BME280;67281;48.770;11.440;2023-04-24T08:01:20;96379.00;;;19.92;44.77
78073;BME280;67281;48.770;11.440;2023-04-24T08:03:47;96379.31;;;19.82;44.74
78073;BME280;67281;48.770;11.440;2023-04-24T08:06:14;96386.00;;;19.78;45.24
78073;BME280;67281;48.770;11.440;2023-04-24T08:08:41;96384.53;;;19.76;44.63
78073;BME280;67281;48.770;11.440;2023-04-24T08:11:08;96393.97;;;19.78;45.40
78073;BME280;67281;48.770;11.440;2023-04-24T08:13:35;96392.16;;;19.79;45.40
78073;BME280;67281;48.770;11.440;2023-04-24T08:16:02;96381.16;;;19.82;45.06
78073;BME280;67281;48.770;11.440;2023-04-24T08:18:29;96389.78;;;19.69;44.78
78073;BME280;67281;48.770;11.440;2023-04-24T08:20:56;96393.63;;;19.66;44.89
78073;BME280;67281;48.770;11.440;2023-04-24T08:23:28;96396.94;;;19.68;44.93
78073;BME280;67281;48.770;11.440;2023-04-24T08:25:59;96383.53;;;19.77;44.78
78073;BME280;67281;48.770;11.440;2023-04-24T08:28:26;96385.44;;;19.83;45.24
78073;BME280;67281;48.770;11.440;2023-04-24T08:30:52;96390.03;;;19.89;44.78
78073;BME280;67281;48.770;11.440;2023-04-24T08:33:22;96386.00;;;19.78;44.99
78073;BME280;67281;48.770;11.440;2023-04-24T08:35:49;96398.25;;;19.94;44.33
78073;BME280;67281;48.770;11.440;2023-04-24T08:38:16;96402.06;;;20.06;44.32
78073;BME280;67281;48.770;11.440;2023-04-24T08:40:43;96407.97;;;20.01;44.72
78073;BME280;67281;48.770;11.440;2023-04-24T08:43:12;96403.59;;;19.94;44.49
78073;BME280;67281;48.770;11.440;2023-04-24T08:45:40;96401.66;;;19.88;44.55
78073;BME280;67281;48.770;11.440;2023-04-24T08:48:08;96401.13;;;19.92;44.94
78073;BME280;67281;48.770;11.440;2023-04-24T08:50:56;96395.81;;;20.14;43.86
78073;BME280;67281;48.770;11.440;2023-04-24T08:53:24;96391.69;;;20.11;43.69
78073;BME280;67281;48.770;11.440;2023-04-24T08:55:54;96398.47;;;20.14;44.53
78073;BME280;67281;48.770;11.440;2023-04-24T08:58:24;96395.69;;;20.22;43.52
78073;BME280;67281;48.770;11.440;2023-04-24T09:00:53;96396.25;;;20.17;44.32
78073;BME280;67281;48.770;11.440;2023-04-24T09:03:21;96399.63;;;20.26;44.30
78073;BME280;67281;48.770;11.440;2023-04-24T09:05:49;96393.34;;;20.33;43.29
78073;BME280;67281;48.770;11.440;2023-04-24T09:08:20;96407.59;;;20.41;43.96
78073;BME280;67281;48.770;11.440;2023-04-24T09:10:50;96401.72;;;20.30;43.47
78073;BME280;67281;48.770;11.440;2023-04-24T09:13:18;96411.47;;;20.23;43.87
78073;BME280;67281;48.770;11.440;2023-04-24T09:15:45;96405.94;;;20.40;43.69
78073;BME280;67281;48.770;11.440;2023-04-24T09:18:12;96410.25;;;20.41;44.12
78073;BME280;67281;48.770;11.440;2023-04-24T09:23:27;96409.88;;;20.44;43.61
78073;BME280;67281;48.770;11.440;2023-04-24T09:25:56;96405.19;;;20.46;43.63
78073;BME280;67281;48.770;11.440;2023-04-24T09:28:38;96403.28;;;20.40;43.69
78073;BME280;67281;48.770;11.440;2023-04-24T09:31:11;96398.84;;;20.47;43.88
78073;BME280;67281;48.770;11.440;2023-04-24T09:33:39;96399.28;;;20.50;43.54
78073;BME280;67281;48.770;11.440;2023-04-24T09:36:09;96418.38;;;20.54;43.47
78073;BME280;67281;48.770;11.440;2023-04-24T09:38:37;96416.72;;;20.53;43.66
78073;BME280;67281;48.770;11.440;2023-04-24T09:41:06;96409.56;;;20.53;43.23
78073;BME280;67281;48.770;11.440;2023-04-24T09:43:35;96418.13;;;20.49;43.83
78073;BME280;67281;48.770;11.440;2023-04-24T09:46:08;96422.63;;;20.48;43.43
78073;BME280;67281;48.770;11.440;2023-04-24T09:48:37;96421.34;;;20.44;43.47
78073;BME280;67281;48.770;11.440;2023-04-24T09:51:05;96419.34;;;20.31;43.88
78073;BME280;67281;48.770;11.440;2023-04-24T09:53:38;96421.63;;;20.34;43.63
78073;BME280;67281;48.770;11.440;2023-04-24T09:56:08;96413.81;;;20.33;43.71
78073;BME280;67281;48.770;11.440;2023-04-24T09:58:36;96417.22;;;20.42;43.67
78073;BME280;67281;48.770;11.440;2023-04-24T10:01:03;96410.50;;;20.46;43.55
78073;BME280;67281;48.770;11.440;2023-04-24T10:03:31;96414.44;;;20.50;43.59
78073;BME280;67281;48.770;11.440;2023-04-24T10:06:00;96408.75;;;20.53;43.30
78073;BME280;67281;48.770;11.440;2023-04-24T10:08:33;96413.03;;;20.54;43.09
78073;BME280;67281;48.770;11.440;2023-04-24T10:11:01;96400.56;;;20.54;43.12
78073;BME280;67281;48.770;11.440;2023-04-24T10:13:28;96394.28;;;20.62;43.47
78073;BME280;67281;48.770;11.440;2023-04-24T10:15:56;96399.75;;;20.54;42.84
78073;BME280;67281;48.770;11.440;2023-04-24T10:18:23;96403.28;;;20.61;42.98
78073;BME280;67281;48.770;11.440;2023-04-24T10:20:52;96395.03;;;20.56;43.17
78073;BME280;67281;48.770;11.440;2023-04-24T10:23:25;96404.94;;;20.41;43.03
78073;BME280;67281;48.770;11.440;2023-04-24T10:25:52;96401.63;;;20.39;43.86
78073;BME280;67281;48.770;11.440;2023-04-24T10:28:20;96414.13;;;20.38;43.33
78073;BME280;67281;48.770;11.440;2023-04-24T10:30:47;96426.31;;;20.32;43.52
78073;BME280;67281;48.770;11.440;2023-04-24T10:33:14;96454.22;;;20.22;43.77
78073;BME280;67281;48.770;11.440;2023-04-24T10:35:44;96450.97;;;20.05;44.29
78073;BME280;67281;48.770;11.440;2023-04-24T10:38:17;96479.19;;;20.06;44.48
78073;BME280;67281;48.770;11.440;2023-04-24T10:41:22;96469.06;;;20.31;43.97
78073;BME280;67281;48.770;11.440;2023-04-24T10:44:06;96459.06;;;20.48;44.03
78073;BME280;67281;48.770;11.440;2023-04-24T10:46:33;96458.75;;;20.57;43.80
78073;BME280;67281;48.770;11.440;2023-04-24T10:49:04;96440.19;;;20.64;43.42
78073;BME280;67281;48.770;11.440;2023-04-24T10:54:48;96441.53;;;20.81;43.47
78073;BME280;67281;48.770;11.440;2023-04-24T10:59:51;96442.38;;;20.82;43.56
78073;BME280;67281;48.770;11.440;2023-04-24T11:02:18;96446.03;;;20.81;43.23
78073;BME280;67281;48.770;11.440;2023-04-24T11:05:04;96439.28;;;20.78;43.34
78073;BME280;67281;48.770;11.440;2023-04-24T11:10:44;96428.22;;;20.81;43.15
78073;BME280;67281;48.770;11.440;2023-04-24T11:13:16;96435.69;;;20.92;43.51
78073;BME280;67281;48.770;11.440;2023-04-24T11:15:43;96431.44;;;20.98;43.02
78073;BME280;67281;48.770;11.440;2023-04-24T11:18:14;96431.25;;;20.99;43.24
78073;BME280;67281;48.770;11.440;2023-04-24T11:20:43;96428.72;;;20.91;43.38
78073;BME280;67281;48.770;11.440;2023-04-24T11:23:12;96433.56;;;20.81;43.06
78073;BME280;67281;48.770;11.440;2023-04-24T11:25:39;96430.47;;;20.78;43.65
78073;BME280;67281;48.770;11.440;2023-04-24T11:28:06;96439.88;;;20.74;43.44
78073;BME280;67281;48.770;11.440;2023-04-24T11:30:33;96429.31;;;20.87;43.23
78073;BME280;67281;48.770;11.440;2023-04-24T11:33:04;96439.44;;;20.98;43.24
78073;BME280;67281;48.770;11.440;2023-04-24T11:35:36;96438.53;;;21.12;43.14
78073;BME280;67281;48.770;11.440;2023-04-24T11:38:05;96427.06;;;21.12;42.37
78073;BME280;67281;48.770;11.440;2023-04-24T11:40:49;96431.94;;;21.08;43.00
78073;BME280;67281;48.770;11.440;2023-04-24T11:43:17;96422.88;;;21.03;43.22
78073;BME280;67281;48.770;11.440;2023-04-24T11:45:48;96429.84;;;21.04;42.83
78073;BME280;67281;48.770;11.440;2023-04-24T11:48:19;96419.53;;;20.94;42.65
78073;BME280;67281;48.770;11.440;2023-04-24T11:50:48;96427.94;;;21.19;42.61
78073;BME280;67281;48.770;11.440;2023-04-24T11:53:15;96426.00;;;21.34;42.43
78073;BME280;67281;48.770;11.440;2023-04-24T11:55:42;96420.09;;;21.39;42.10
78073;BME280;67281;48.770;11.440;2023-04-24T11:58:09;96424.19;;;21.35;41.88
78073;BME280;67281;48.770;11.440;2023-04-24T12:00:36;96433.63;;;21.16;42.19
78073;BME280;67281;48.770;11.440;2023-04-24T12:03:05;96437.22;;;21.02;42.81
78073;BME280;67281;48.770;11.440;2023-04-24T12:05:33;96428.53;;;20.93;42.31
78073;BME280;67281;48.770;11.440;2023-04-24T12:08:01;96428.97;;;20.96;42.03
78073;BME280;67281;48.770;11.440;2023-04-24T12:10:34;96435.06;;;20.90;43.11
78073;BME280;67281;48.770;11.440;2023-04-24T12:13:01;96430.13;;;20.87;43.20
78073;BME280;67281;48.770;11.440;2023-04-24T12:15:28;96434.38;;;20.82;43.46
78073;BME280;67281;48.770;11.440;2023-04-24T12:17:56;96447.69;;;20.82;42.84
78073;BME280;67281;48.770;11.440;2023-04-24T12:20:32;96441.41;;;20.89;42.69
78073;BME280;67281;48.770;11.440;2023-04-24T12:23:00;96455.47;;;21.26;41.88
78073;BME280;67281;48.770;11.440;2023-04-24T12:25:29;96458.72;;;21.49;41.56
78073;BME280;67281;48.770;11.440;2023-04-24T12:30:31;96459.81;;;21.61;41.57
78073;BME280;67281;48.770;11.440;2023-04-24T12:32:59;96453.69;;;21.68;40.75
78073;BME280;67281;48.770;11.440;2023-04-24T12:35:29;96457.38;;;21.67;41.37
78073;BME280;67281;48.770;11.440;2023-04-24T12:38:05;96455.38;;;21.41;41.39
78073;BME280;67281;48.770;11.440;2023-04-24T12:40:35;96459.25;;;21.38;41.65
78073;BME280;67281;48.770;11.440;2023-04-24T12:43:12;96461.63;;;21.26;41.98
78073;BME280;67281;48.770;11.440;2023-04-24T12:45:39;96455.41;;;21.19;41.83
78073;BME280;67281;48.770;11.440;2023-04-24T12:48:06;96467.44;;;21.15;41.65
78073;BME280;67281;48.770;11.440;2023-04-24T12:50:33;96463.91;;;21.29;42.10
78073;BME280;67281;48.770;11.440;2023-04-24T12:53:00;96463.53;;;21.67;41.02
78073;BME280;67281;48.770;11.440;2023-04-24T12:55:27;96457.91;;;21.49;40.85
78073;BME280;67281;48.770;11.440;2023-04-24T12:57:53;96456.84;;;21.43;41.11
78073;BME280;67281;48.770;11.440;2023-04-24T13:00:21;96457.44;;;21.17;41.64
78073;BME280;67281;48.770;11.440;2023-04-24T13:02:49;96464.28;;;21.05;42.60
78073;BME280;67281;48.770;11.440;2023-04-24T13:05:16;96482.69;;;21.00;41.90
78073;BME280;67281;48.770;11.440;2023-04-24T13:07:42;96477.56;;;20.98;42.00
78073;BME280;67281;48.770;11.440;2023-04-24T13:10:09;96481.22;;;20.97;41.78